Portada
METAR-TAF:

METAR-TAF

Aeroports :

Libreville, Gabon

latitud: 00-27N, longitud: 009-25E, altitud: 12 m

Observació

L'informe es va fer fa 1 hora i 11 minuts, a les 22:30 UTC
Vent 7 kt del Sud, variant entre Sud/Sud-Est i Sud-Oest
Temperatura 27°C
Humitat 89%
Pressió 1012 hPa
Visibilitat: 8000 m
Núvols disperses a una alçada de 1000 ft
Escasses núvols a una alçada de 2000 ft, Cumulonimbus.
tempesta

METAR: FOOL 302230Z 19007KT 160V220 8000 TS SCT010 FEW020CB 27/25 Q1012 NOSIG

Hora: 00:41 (23:41 UTC)

Pronòstic

L'informe es va fer fa 41 minuts, a les 23:00 UTC
Pronòstic vàlid del 31 a les 00 UTC al 01 a les 06 UTC
Vent 7 kt del Sud/Sud-Oest
Visibilitat 10 km o més
Núvols disperses a una alçada de 1000 ft
Escasses núvols a una alçada de 2000 ft, Cumulonimbus.
Probabilitat 30% :
Temporalment
l' 31 a les 03 UTC al 31 a les 08 UTC
Visibilitat: 4000 m
Cel ennuvolat a una alçada de 800 ft
tempesta, pluja

TAF: FOOL 302300Z 3100/0106 20007KT 9999 SCT010 FEW020CB PROB30 TEMPO 3103/3108 4000 TSRA BKN008

Observacions i pronòstics meteorològics de més de 4000 aeroports (METAR i TAF).

Les estacions disponibles són els punts grocs i vermells al mapa.

Posi el ratolí al punt desitjat per veure el nom de l'estació.

Feu clic per veure les observacions i els pronòstics meteorològics.

Per canviar el mapa: feu clic els botons verds amb una creu de color negre per apropar; al botó verd amb un guió per allunyar la imatge; o en les fletxes verdes per a mapes adjacents.


METAR-TAF: